createdAt,value
2019-01-03T00:00:07.501Z,102626.34
2019-01-03T00:02:55.847Z,102632.40
2019-01-03T00:05:44.144Z,102597.44
2019-01-03T00:11:13.510Z,102636.80
2019-01-03T00:14:15.955Z,102606.11
2019-01-03T00:17:04.212Z,102636.80
2019-01-03T00:20:11.358Z,102633.40
2019-01-03T00:23:02.528Z,102630.94
2019-01-03T00:25:50.731Z,102631.77
2019-01-03T00:28:38.963Z,102634.95
2019-01-03T00:31:27.173Z,102637.60
2019-01-03T00:34:15.355Z,102630.32
2019-01-03T00:37:03.596Z,102634.73
2019-01-03T00:39:57.924Z,102634.79
2019-01-03T00:42:46.120Z,102628.39
2019-01-03T00:45:26.328Z,102623.67
2019-01-03T00:48:14.722Z,102626.75
2019-01-03T00:51:09.367Z,102629.40
2019-01-03T00:53:57.551Z,102585.15
2019-01-03T00:56:45.739Z,102633.75
2019-01-03T00:59:34.206Z,102634.95
2019-01-03T01:02:40.662Z,102641.81
2019-01-03T01:05:29.107Z,102632.24
2019-01-03T01:08:17.318Z,102640.16
2019-01-03T01:11:05.895Z,102648.06
2019-01-03T01:17:03.136Z,102645.61
2019-01-03T01:19:51.396Z,102642.14
2019-01-03T01:22:36.713Z,102643.22
2019-01-03T01:25:25.197Z,102641.59
2019-01-03T01:28:31.467Z,102646.96
2019-01-03T01:31:19.651Z,102642.70
2019-01-03T01:34:07.986Z,102655.80
2019-01-03T01:36:56.229Z,102656.73
2019-01-03T01:39:44.487Z,102655.47
2019-01-03T01:42:32.715Z,102663.38
2019-01-03T01:45:20.911Z,102669.02
2019-01-03T01:48:07.925Z,102678.19
2019-01-03T01:50:56.185Z,102680.36
2019-01-03T01:56:50.262Z,102681.32
2019-01-03T01:59:38.443Z,102683.14
2019-01-03T02:02:26.670Z,102684.48
2019-01-03T02:05:14.902Z,102677.97
2019-01-03T02:08:03.127Z,102678.04
2019-01-03T02:14:05.480Z,102667.71
2019-01-03T02:16:53.857Z,102676.05
2019-01-03T02:19:42.106Z,102672.56
2019-01-03T02:22:30.323Z,102673.45
2019-01-03T02:25:18.628Z,102676.48
2019-01-03T02:28:07.204Z,102673.87
2019-01-03T02:30:55.497Z,102672.17
2019-01-03T02:33:44.128Z,102676.56
2019-01-03T02:36:51.301Z,102673.97
2019-01-03T02:39:39.544Z,102678.31
2019-01-03T02:42:27.837Z,102687.94
2019-01-03T02:45:16.023Z,102683.63
2019-01-03T02:48:04.579Z,102687.58
2019-01-03T02:50:52.791Z,102692.00
2019-01-03T02:53:41.153Z,102690.73
2019-01-03T02:56:29.406Z,102686.81
2019-01-03T02:59:17.843Z,102672.49
2019-01-03T03:02:06.174Z,102665.50
2019-01-03T03:04:54.442Z,102620.42
2019-01-03T03:07:42.686Z,102656.83
2019-01-03T03:10:30.890Z,102658.16
2019-01-03T03:13:19.066Z,102659.47
2019-01-03T03:16:07.348Z,102659.48
2019-01-03T03:18:58.705Z,102629.84
2019-01-03T03:21:49.297Z,102653.52
2019-01-03T03:24:37.606Z,102654.39
2019-01-03T03:27:25.955Z,102652.25
2019-01-03T03:30:14.164Z,102648.80
2019-01-03T03:33:02.401Z,102647.93
2019-01-03T03:35:45.763Z,102646.22
2019-01-03T03:38:33.999Z,102650.14
2019-01-03T03:41:22.290Z,102639.30
2019-01-03T03:44:29.556Z,102613.88
2019-01-03T03:47:17.756Z,102639.31
2019-01-03T03:50:06.004Z,102632.80
2019-01-03T03:53:09.548Z,102646.27
2019-01-03T03:55:57.735Z,102638.02
2019-01-03T03:58:52.075Z,102643.66
2019-01-03T04:01:40.287Z,102640.59
2019-01-03T04:04:28.575Z,102639.67
2019-01-03T04:07:16.838Z,102639.64
2019-01-03T04:10:08.169Z,102636.13
2019-01-03T04:12:56.390Z,102638.73
2019-01-03T04:15:44.618Z,102649.19
2019-01-03T04:18:35.942Z,102652.28
2019-01-03T04:21:24.257Z,102654.02
2019-01-03T04:24:12.515Z,102663.59
2019-01-03T04:27:00.840Z,102667.09
2019-01-03T04:29:52.156Z,102661.84
2019-01-03T04:32:59.387Z,102658.80
2019-01-03T04:35:47.698Z,102650.98
2019-01-03T04:38:35.996Z,102649.22
2019-01-03T04:44:17.043Z,102624.66
2019-01-03T04:46:59.704Z,102672.67
2019-01-03T04:52:43.116Z,102600.03
2019-01-03T04:55:31.331Z,102661.36
2019-01-03T05:01:53.569Z,102663.85
2019-01-03T05:04:41.802Z,102677.22
2019-01-03T05:07:30.019Z,102674.05
2019-01-03T05:10:18.204Z,102683.95
2019-01-03T05:13:06.482Z,102687.22
2019-01-03T05:15:54.673Z,102690.13
2019-01-03T05:18:42.934Z,102696.87
2019-01-03T05:21:31.249Z,102696.20
2019-01-03T05:24:19.605Z,102693.45
2019-01-03T05:27:07.972Z,102694.30
2019-01-03T05:29:56.159Z,102698.03
2019-01-03T05:32:44.372Z,102702.59
2019-01-03T05:35:32.554Z,102712.80
2019-01-03T05:38:21.127Z,102718.23
2019-01-03T05:41:07.815Z,102722.36
2019-01-03T05:44:11.649Z,102737.27
2019-01-03T05:47:00.082Z,102730.61
2019-01-03T05:49:48.407Z,102731.29
2019-01-03T05:52:36.819Z,102731.14
2019-01-03T05:55:25.202Z,102737.92
2019-01-03T05:58:13.406Z,102733.01
2019-01-03T06:01:01.614Z,102730.80
2019-01-03T06:03:49.806Z,102736.41
2019-01-03T06:06:37.989Z,102750.67
2019-01-03T06:09:27.028Z,102750.70
2019-01-03T06:12:10.328Z,102751.53
2019-01-03T06:14:58.523Z,102757.20
2019-01-03T06:17:47.227Z,102753.37
2019-01-03T06:20:35.680Z,102774.16
2019-01-03T06:23:24.060Z,102779.56
2019-01-03T06:26:12.375Z,102734.05
2019-01-03T06:29:00.616Z,102779.98
2019-01-03T06:31:49.050Z,102771.47
2019-01-03T06:34:37.239Z,102767.21
2019-01-03T06:37:25.517Z,102767.24
2019-01-03T06:40:13.949Z,102756.87
2019-01-03T06:43:02.160Z,102778.09
2019-01-03T06:46:07.854Z,102763.78
2019-01-03T06:48:56.278Z,102776.50
2019-01-03T06:51:44.561Z,102789.92
2019-01-03T06:54:32.880Z,102775.08
2019-01-03T06:57:18.387Z,102782.38
2019-01-03T07:00:09.963Z,102780.06
2019-01-03T07:03:17.124Z,102777.79
2019-01-03T07:06:05.370Z,102790.25
2019-01-03T07:08:53.722Z,102778.48
2019-01-03T07:11:42.233Z,102780.23
2019-01-03T07:14:30.747Z,102788.00
2019-01-03T07:17:19.058Z,102796.63
2019-01-03T07:20:07.302Z,102791.81
2019-01-03T07:22:55.603Z,102802.17
2019-01-03T07:25:43.782Z,102809.95
2019-01-03T07:28:31.986Z,102817.68
2019-01-03T07:31:20.158Z,102828.66
2019-01-03T07:34:08.355Z,102835.27
2019-01-03T07:36:56.584Z,102841.52
2019-01-03T07:39:38.892Z,102841.61
2019-01-03T07:42:27.260Z,102841.14
2019-01-03T07:45:15.668Z,102838.50
2019-01-03T07:48:03.895Z,102838.06
2019-01-03T07:50:52.084Z,102840.16
2019-01-03T07:53:40.474Z,102848.40
2019-01-03T07:56:28.710Z,102855.28
2019-01-03T07:59:16.900Z,102853.91
2019-01-03T08:02:05.394Z,102855.69
2019-01-03T08:04:53.599Z,102850.87
2019-01-03T08:07:41.921Z,102828.05
2019-01-03T08:10:36.417Z,102848.71
2019-01-03T08:13:24.680Z,102847.86
2019-01-03T08:16:12.878Z,102844.81
2019-01-03T08:19:01.159Z,102846.59
2019-01-03T08:21:49.366Z,102850.01
2019-01-03T08:24:37.634Z,102856.06
2019-01-03T08:27:25.915Z,102862.95
2019-01-03T08:30:14.390Z,102858.53
2019-01-03T08:33:02.616Z,102859.32
2019-01-03T08:35:50.980Z,102861.00
2019-01-03T08:38:35.662Z,102853.98
2019-01-03T08:41:24.265Z,102859.63
2019-01-03T08:44:12.614Z,102866.16
2019-01-03T08:47:01.064Z,102877.97
2019-01-03T08:50:01.614Z,102836.22
2019-01-03T08:52:49.839Z,102898.06
2019-01-03T08:55:38.152Z,102899.91
2019-01-03T09:01:21.666Z,102916.20
2019-01-03T09:04:10.117Z,102912.98
2019-01-03T09:06:58.564Z,102921.87
2019-01-03T09:12:52.914Z,102929.19
2019-01-03T09:15:41.146Z,102932.36
2019-01-03T09:18:29.373Z,102929.57
2019-01-03T09:21:17.556Z,102928.07
2019-01-03T09:24:06.001Z,102933.43
2019-01-03T09:26:54.323Z,102919.22
2019-01-03T09:29:43.051Z,102879.71
2019-01-03T09:32:31.218Z,102914.60
2019-01-03T09:35:38.376Z,102905.01
2019-01-03T09:38:26.602Z,102905.13
2019-01-03T09:41:14.936Z,102898.55
2019-01-03T09:44:03.119Z,102897.13
2019-01-03T09:46:32.610Z,102902.23
2019-01-03T09:49:01.902Z,102869.73
2019-01-03T09:51:31.762Z,102902.94
2019-01-03T09:54:01.051Z,102901.16
2019-01-03T09:56:30.406Z,102905.05
2019-01-03T09:58:59.718Z,102909.30
2019-01-03T10:01:29.094Z,102911.41
2019-01-03T10:03:58.481Z,102910.42
2019-01-03T10:06:27.817Z,102911.19
2019-01-03T10:08:57.090Z,102917.66
2019-01-03T10:14:01.826Z,102901.44
2019-01-03T10:16:31.202Z,102920.77
2019-01-03T10:19:00.752Z,102918.14
2019-01-03T10:21:30.050Z,102909.50
2019-01-03T10:23:59.445Z,102910.36
2019-01-03T10:26:28.743Z,102901.37
2019-01-03T10:28:58.499Z,102898.83
2019-01-03T10:31:27.885Z,102899.84
2019-01-03T10:33:57.288Z,102898.23
2019-01-03T10:36:27.474Z,102847.05
2019-01-03T10:38:57.606Z,102896.81
2019-01-03T10:41:26.951Z,102892.98
2019-01-03T10:43:56.254Z,102890.02
2019-01-03T10:46:25.550Z,102891.43
2019-01-03T10:48:55.000Z,102894.14
2019-01-03T10:51:24.289Z,102846.39
2019-01-03T10:53:53.946Z,102897.87
2019-01-03T10:56:23.264Z,102897.11
2019-01-03T10:58:52.605Z,102895.42
2019-01-03T11:01:21.908Z,102898.08
2019-01-03T11:03:51.403Z,102905.06
2019-01-03T11:06:20.686Z,102902.06
2019-01-03T11:08:50.354Z,102909.55
2019-01-03T11:11:19.738Z,102901.83
2019-01-03T11:13:49.377Z,102904.58
2019-01-03T11:16:18.694Z,102816.02
2019-01-03T11:18:48.718Z,102905.69
2019-01-03T11:21:18.081Z,102905.80
2019-01-03T11:23:47.434Z,102896.34
2019-01-03T11:26:16.805Z,102899.50
2019-01-03T11:28:46.286Z,102894.78
2019-01-03T11:31:15.696Z,102900.56
2019-01-03T11:33:45.473Z,102899.30
2019-01-03T11:36:14.763Z,102851.17
2019-01-03T11:38:44.250Z,102885.97
2019-01-03T11:43:48.282Z,102883.05
2019-01-03T11:46:18.019Z,102879.62
2019-01-03T11:48:47.333Z,102866.20
2019-01-03T11:51:17.019Z,102867.55
2019-01-03T11:56:20.999Z,102861.09
2019-01-03T11:58:50.390Z,102859.00
2019-01-03T12:01:19.667Z,102852.94
2019-01-03T12:03:49.040Z,102854.72
2019-01-03T12:08:53.396Z,102846.13
2019-01-03T12:11:22.754Z,102825.97
2019-01-03T12:13:52.084Z,102841.80
2019-01-03T12:16:21.418Z,102841.81
2019-01-03T12:18:50.750Z,102835.28
2019-01-03T12:21:20.048Z,102840.55
2019-01-03T12:23:49.540Z,102838.83
2019-01-03T12:26:18.862Z,102792.95
2019-01-03T12:28:48.313Z,102806.15
2019-01-03T12:31:36.754Z,102771.51
2019-01-03T12:34:06.103Z,102803.48
2019-01-03T12:36:35.547Z,102807.34
2019-01-03T12:39:06.684Z,102812.95
2019-01-03T12:41:36.266Z,102815.98
2019-01-03T12:44:17.619Z,102813.75
2019-01-03T12:46:47.166Z,102805.44
2019-01-03T12:49:35.523Z,102760.22
2019-01-03T12:52:04.802Z,102803.58
2019-01-03T12:54:34.391Z,102810.88
2019-01-03T12:57:03.700Z,102779.20
2019-01-03T12:59:33.334Z,102814.73
2019-01-03T13:02:02.652Z,102811.65
2019-01-03T13:04:32.329Z,102807.27
2019-01-03T13:07:20.850Z,102761.19
2019-01-03T13:09:50.210Z,102800.16
2019-01-03T13:12:19.822Z,102814.05
2019-01-03T13:14:49.102Z,102803.59
2019-01-03T13:20:12.382Z,102807.13
2019-01-03T13:22:41.872Z,102817.56
2019-01-03T13:25:11.158Z,102825.44
2019-01-03T13:27:59.404Z,102831.13
2019-01-03T13:30:28.815Z,102817.67
2019-01-03T13:35:46.392Z,102814.23
2019-01-03T13:38:15.715Z,102806.41
2019-01-03T13:40:45.115Z,102810.74
2019-01-03T13:43:14.499Z,102800.23
2019-01-03T13:45:43.837Z,102808.15
2019-01-03T13:48:13.174Z,102796.85
2019-01-03T13:50:42.771Z,102798.12
2019-01-03T13:53:12.076Z,102716.94
2019-01-03T13:55:41.355Z,102809.80
2019-01-03T13:58:29.602Z,102771.17
2019-01-03T14:00:58.908Z,102806.27
2019-01-03T14:03:28.371Z,102793.59
2019-01-03T14:06:16.941Z,102801.00
2019-01-03T14:08:46.258Z,102791.78
2019-01-03T14:11:15.849Z,102793.89
2019-01-03T14:13:45.198Z,102800.73
2019-01-03T14:16:14.734Z,102795.41
2019-01-03T14:18:44.087Z,102792.67
2019-01-03T14:21:32.412Z,102797.33
2019-01-03T14:24:01.999Z,102796.39
2019-01-03T14:26:31.291Z,102790.16
2019-01-03T14:29:00.964Z,102798.77
2019-01-03T14:31:30.265Z,102751.73
2019-01-03T14:33:59.897Z,102795.09
2019-01-03T14:36:29.218Z,102748.13
2019-01-03T14:38:58.816Z,102791.88
2019-01-03T14:41:28.110Z,102791.78
2019-01-03T14:43:57.817Z,102802.98
2019-01-03T14:46:27.165Z,102798.13
2019-01-03T14:48:57.569Z,102800.25
2019-01-03T14:51:26.922Z,102801.92
2019-01-03T14:53:56.508Z,102799.20
2019-01-03T14:56:25.836Z,102748.37
2019-01-03T14:58:55.283Z,102796.55
2019-01-03T15:01:24.589Z,102742.09
2019-01-03T15:03:54.286Z,102797.37
2019-01-03T15:06:23.567Z,102798.62
2019-01-03T15:08:53.303Z,102791.13
2019-01-03T15:11:22.641Z,102794.55
2019-01-03T15:13:52.452Z,102793.58
2019-01-03T15:16:21.764Z,102745.28
2019-01-03T15:18:51.338Z,102795.14
2019-01-03T15:21:20.620Z,102806.33
2019-01-03T15:23:50.603Z,102796.72
2019-01-03T15:26:19.907Z,102753.11
2019-01-03T15:28:49.381Z,102796.52
2019-01-03T15:31:18.676Z,102739.34
2019-01-03T15:33:48.360Z,102801.14
2019-01-03T15:36:36.580Z,102748.00
2019-01-03T15:39:06.332Z,102797.53
2019-01-03T15:41:36.151Z,102785.75
2019-01-03T15:44:24.597Z,102784.88
2019-01-03T15:46:53.900Z,102781.38
2019-01-03T15:49:23.268Z,102785.63
2019-01-03T15:51:52.589Z,102790.78
2019-01-03T15:54:22.145Z,102728.50
2019-01-03T15:56:51.461Z,102782.00
2019-01-03T15:59:20.954Z,102781.94
2019-01-03T16:01:50.266Z,102783.56
2019-01-03T16:04:19.864Z,102781.75
2019-01-03T16:06:49.273Z,102782.58
2019-01-03T16:09:18.904Z,102774.30
2019-01-03T16:11:48.248Z,102776.87
2019-01-03T16:14:17.891Z,102788.51
2019-01-03T16:16:47.299Z,102780.67
2019-01-03T16:19:16.813Z,102776.30
2019-01-03T16:21:46.141Z,102775.41
2019-01-03T16:27:04.551Z,102777.98
2019-01-03T16:29:33.847Z,102728.72
2019-01-03T16:32:03.238Z,102779.56
2019-01-03T16:34:32.541Z,102732.05
2019-01-03T16:37:02.352Z,102775.98
2019-01-03T16:39:31.662Z,102775.91
2019-01-03T16:42:01.333Z,102765.89
2019-01-03T16:44:30.658Z,102676.37
2019-01-03T16:49:48.774Z,102750.64
2019-01-03T16:52:18.048Z,102759.23
2019-01-03T16:54:47.771Z,102766.17
2019-01-03T16:57:17.107Z,102766.17
2019-01-03T16:59:46.549Z,102762.65
2019-01-03T17:02:15.855Z,102754.41
2019-01-03T17:04:45.322Z,102748.28
2019-01-03T17:07:14.637Z,102747.91
2019-01-03T17:09:44.141Z,102751.80
2019-01-03T17:12:13.473Z,102759.13
2019-01-03T17:14:42.983Z,102760.42
2019-01-03T17:17:12.334Z,102758.30
2019-01-03T17:19:41.869Z,102759.98
2019-01-03T17:22:11.189Z,102763.44
2019-01-03T17:24:40.511Z,102760.84
2019-01-03T17:27:09.892Z,102756.91
2019-01-03T17:29:39.276Z,102754.72
2019-01-03T17:32:08.561Z,102753.42
2019-01-03T17:34:38.038Z,102746.92
2019-01-03T17:37:07.389Z,102743.46
2019-01-03T17:39:36.716Z,102739.63
2019-01-03T17:42:06.031Z,102733.61
2019-01-03T17:47:23.708Z,102724.06
2019-01-03T17:49:52.990Z,102712.41
2019-01-03T17:52:22.283Z,102711.64
2019-01-03T17:54:51.611Z,102658.64
2019-01-03T17:57:20.911Z,102660.01
2019-01-03T17:59:50.261Z,102706.56
2019-01-03T18:02:19.561Z,102609.75
2019-01-03T18:04:49.186Z,102701.49
2019-01-03T18:07:18.514Z,102696.33
2019-01-03T18:09:48.689Z,102688.55
2019-01-03T18:12:18.042Z,102689.50
2019-01-03T18:14:47.385Z,102674.45
2019-01-03T18:17:16.684Z,102601.69
2019-01-03T18:19:46.217Z,102664.67
2019-01-03T18:22:15.522Z,102632.34
2019-01-03T18:24:45.074Z,102647.90
2019-01-03T18:27:14.383Z,102644.13
2019-01-03T18:29:43.811Z,102624.33
2019-01-03T18:32:13.144Z,102617.10
2019-01-03T18:35:01.491Z,102623.72
2019-01-03T18:37:31.466Z,102626.89
2019-01-03T18:40:00.779Z,102628.83
2019-01-03T18:42:30.307Z,102629.41
2019-01-03T18:44:59.627Z,102626.37
2019-01-03T18:50:36.449Z,102608.23
2019-01-03T18:53:06.040Z,102601.80
2019-01-03T18:55:35.395Z,102591.47
2019-01-03T18:58:04.889Z,102597.27
2019-01-03T19:00:34.187Z,102518.26
2019-01-03T19:03:22.524Z,102589.23
2019-01-03T19:05:52.494Z,102587.46
2019-01-03T19:08:21.802Z,102594.45
2019-01-03T19:10:51.192Z,102589.25
2019-01-03T19:13:20.495Z,102584.86
2019-01-03T19:15:50.089Z,102576.16
2019-01-03T19:18:19.398Z,102576.19
2019-01-03T19:20:48.898Z,102567.52
2019-01-03T19:23:18.184Z,102562.30
2019-01-03T19:25:47.682Z,102504.67
2019-01-03T19:28:16.980Z,102557.15
2019-01-03T19:30:46.633Z,102555.87
2019-01-03T19:33:15.957Z,102552.86
2019-01-03T19:35:45.414Z,102540.70
2019-01-03T19:38:14.819Z,102539.84
2019-01-03T19:40:44.135Z,102539.83
2019-01-03T19:43:13.435Z,102543.27
2019-01-03T19:45:42.979Z,102545.84
2019-01-03T19:48:12.309Z,102542.33
2019-01-03T19:50:41.740Z,102560.53
2019-01-03T19:53:11.046Z,102569.14
2019-01-03T19:55:59.340Z,102557.81
2019-01-03T19:58:28.744Z,102539.10
2019-01-03T20:00:58.097Z,102525.70
2019-01-03T20:03:27.552Z,102525.28
2019-01-03T20:05:57.025Z,102514.39
2019-01-03T20:08:26.450Z,102451.92
2019-01-03T20:10:55.995Z,102506.61
2019-01-03T20:13:25.351Z,102507.48
2019-01-03T20:15:55.148Z,102506.61
2019-01-03T20:18:24.842Z,102511.82
2019-01-03T20:20:54.140Z,102511.80
2019-01-03T20:23:23.612Z,102508.74
2019-01-03T20:25:52.963Z,102504.36
2019-01-03T20:28:22.278Z,102486.95
2019-01-03T20:30:51.621Z,102493.91
2019-01-03T20:33:20.991Z,102475.95
2019-01-03T20:35:50.323Z,102497.81
2019-01-03T20:38:19.703Z,102492.64
2019-01-03T20:40:49.070Z,102495.20
2019-01-03T20:43:18.415Z,102492.55
2019-01-03T20:45:47.787Z,102495.53
2019-01-03T20:48:17.087Z,102494.63
2019-01-03T20:50:46.478Z,102477.24
2019-01-03T20:53:15.773Z,102464.20
2019-01-03T20:55:45.333Z,102473.31
2019-01-03T21:01:02.966Z,102459.43
2019-01-03T21:03:32.453Z,102458.99
2019-01-03T21:06:01.759Z,102455.05
2019-01-03T21:08:31.524Z,102455.02
2019-01-03T21:11:01.082Z,102452.41
2019-01-03T21:13:30.542Z,102448.97
2019-01-03T21:15:59.851Z,102441.95
2019-01-03T21:18:29.408Z,102451.47
2019-01-03T21:20:58.766Z,102441.86
2019-01-03T21:23:28.318Z,102447.03
2019-01-03T21:25:57.613Z,102346.06
2019-01-03T21:28:27.389Z,102437.86
2019-01-03T21:30:56.695Z,102406.39
2019-01-03T21:36:14.750Z,102427.41
2019-01-03T21:38:44.036Z,102423.94
2019-01-03T21:41:13.574Z,102416.56
2019-01-03T21:43:42.884Z,102362.39
2019-01-03T21:46:12.334Z,102407.45
2019-01-03T21:48:41.641Z,102346.80
2019-01-03T21:51:11.169Z,102400.92
2019-01-03T21:53:52.159Z,102350.68
2019-01-03T21:59:42.050Z,102393.09
2019-01-03T22:02:11.471Z,102390.51
2019-01-03T22:04:40.752Z,102383.16
2019-01-03T22:07:28.999Z,102381.02
2019-01-03T22:09:58.309Z,102380.59
2019-01-03T22:12:27.616Z,102368.87
2019-01-03T22:14:56.904Z,102318.73
2019-01-03T22:17:28.533Z,102348.93
2019-01-03T22:25:27.207Z,102316.84
2019-01-03T22:27:56.556Z,102312.93
2019-01-03T22:30:26.149Z,102300.34
2019-01-03T22:32:55.520Z,102279.40
2019-01-03T22:35:24.843Z,102298.58
2019-01-03T22:37:54.187Z,102300.31
2019-01-03T22:40:42.638Z,102298.09
2019-01-03T22:43:11.938Z,102296.34
2019-01-03T22:45:41.285Z,102284.63
2019-01-03T22:48:29.465Z,102274.23
2019-01-03T22:50:59.088Z,102257.33
2019-01-03T22:53:28.453Z,102250.86
2019-01-03T22:55:58.051Z,102255.20
2019-01-03T22:58:27.360Z,102241.16
2019-01-03T23:00:57.982Z,102263.00
2019-01-03T23:04:06.657Z,102266.50
2019-01-03T23:06:35.950Z,102262.62
2019-01-03T23:09:44.614Z,102278.33
2019-01-03T23:12:13.899Z,102279.64
2019-01-03T23:14:43.217Z,102282.70
2019-01-03T23:17:12.532Z,102273.63
2019-01-03T23:19:41.818Z,102230.95
2019-01-03T23:22:11.283Z,102250.21
2019-01-03T23:24:40.598Z,102233.63
2019-01-03T23:27:09.957Z,102228.50
2019-01-03T23:29:39.273Z,102225.91
2019-01-03T23:32:08.636Z,102215.53
2019-01-03T23:34:37.930Z,102230.28
2019-01-03T23:37:07.762Z,102228.55
2019-01-03T23:39:37.042Z,102174.92
2019-01-03T23:45:14.801Z,102212.89
2019-01-03T23:47:44.325Z,102218.95
2019-01-03T23:50:15.650Z,102211.14
2019-01-03T23:53:04.102Z,102206.34
2019-01-03T23:56:11.460Z,102193.27
2019-01-03T23:58:40.756Z,102208.48
